sensor_id;sensor_type;location;lat;lon;timestamp;pressure;altitude;pressure_sealevel;temperature;humidity
11605;BME280;5858;43.076;25.626;2023-07-13T00:02:24;99240.19;;;25.39;88.33
11605;BME280;5858;43.076;25.626;2023-07-13T00:04:52;99203.91;;;25.14;88.11
11605;BME280;5858;43.076;25.626;2023-07-13T00:07:19;99237.22;;;25.36;88.65
11605;BME280;5858;43.076;25.626;2023-07-13T00:09:47;99082.97;;;24.32;88.54
11605;BME280;5858;43.076;25.626;2023-07-13T00:12:25;99193.00;;;25.03;88.22
11605;BME280;5858;43.076;25.626;2023-07-13T00:14:53;99238.06;;;25.31;88.33
11605;BME280;5858;43.076;25.626;2023-07-13T00:17:21;99097.44;;;24.42;87.18
11605;BME280;5858;43.076;25.626;2023-07-13T00:19:48;99108.06;;;24.49;87.81
11605;BME280;5858;43.076;25.626;2023-07-13T00:22:16;99146.53;;;24.83;87.75
11605;BME280;5858;43.076;25.626;2023-07-13T00:24:44;99135.38;;;24.64;87.42
11605;BME280;5858;43.076;25.626;2023-07-13T00:27:11;99172.03;;;24.68;88.22
11605;BME280;5858;43.076;25.626;2023-07-13T00:29:39;99178.56;;;24.77;87.71
11605;BME280;5858;43.076;25.626;2023-07-13T00:32:07;99115.22;;;24.35;88.76
11605;BME280;5858;43.076;25.626;2023-07-13T00:34:36;99067.44;;;23.97;89.60
11605;BME280;5858;43.076;25.626;2023-07-13T00:37:04;99183.28;;;24.62;90.78
11605;BME280;5858;43.076;25.626;2023-07-13T00:39:32;99226.41;;;25.00;90.46
11605;BME280;5858;43.076;25.626;2023-07-13T00:41:59;99210.00;;;24.90;90.68
11605;BME280;5858;43.076;25.626;2023-07-13T00:44:32;99231.06;;;25.00;90.66
11605;BME280;5858;43.076;25.626;2023-07-13T00:46:59;99222.03;;;24.99;90.46
11605;BME280;5858;43.076;25.626;2023-07-13T00:49:28;99150.72;;;24.55;90.26
11605;BME280;5858;43.076;25.626;2023-07-13T00:52:00;99088.16;;;24.23;89.81
11605;BME280;5858;43.076;25.626;2023-07-13T00:54:32;99176.16;;;24.66;90.46
11605;BME280;5858;43.076;25.626;2023-07-13T00:57:02;99213.81;;;24.89;90.74
11605;BME280;5858;43.076;25.626;2023-07-13T00:59:31;99187.06;;;24.76;90.70
11605;BME280;5858;43.076;25.626;2023-07-13T01:01:58;99213.25;;;25.02;89.65
11605;BME280;5858;43.076;25.626;2023-07-13T01:04:27;99132.44;;;24.40;89.68
11605;BME280;5858;43.076;25.626;2023-07-13T01:06:57;99178.63;;;24.67;90.13
11605;BME280;5858;43.076;25.626;2023-07-13T01:09:27;99154.53;;;24.69;89.96
11605;BME280;5858;43.076;25.626;2023-07-13T01:11:54;99187.28;;;24.85;89.76
11605;BME280;5858;43.076;25.626;2023-07-13T01:14:21;99123.41;;;24.45;89.81
11605;BME280;5858;43.076;25.626;2023-07-13T01:16:48;99194.66;;;24.89;89.88
11605;BME280;5858;43.076;25.626;2023-07-13T01:19:32;99119.91;;;24.29;90.96
11605;BME280;5858;43.076;25.626;2023-07-13T01:22:03;99076.19;;;23.94;90.92
11605;BME280;5858;43.076;25.626;2023-07-13T01:24:34;99108.44;;;24.17;90.61
11605;BME280;5858;43.076;25.626;2023-07-13T01:27:01;99180.81;;;24.55;91.37
11605;BME280;5858;43.076;25.626;2023-07-13T01:29:28;99216.94;;;24.67;92.10
11605;BME280;5858;43.076;25.626;2023-07-13T01:31:55;99210.09;;;24.49;93.01
11605;BME280;5858;43.076;25.626;2023-07-13T01:34:22;99155.44;;;24.04;94.11
11605;BME280;5858;43.076;25.626;2023-07-13T01:36:49;99213.91;;;24.59;93.06
11605;BME280;5858;43.076;25.626;2023-07-13T01:39:20;99198.09;;;24.25;94.39
11605;BME280;5858;43.076;25.626;2023-07-13T01:41:47;99199.75;;;24.36;93.51
11605;BME280;5858;43.076;25.626;2023-07-13T01:44:14;99179.78;;;24.26;93.50
11605;BME280;5858;43.076;25.626;2023-07-13T01:46:41;99180.06;;;24.29;93.65
11605;BME280;5858;43.076;25.626;2023-07-13T01:49:08;99110.91;;;23.63;94.95
11605;BME280;5858;43.076;25.626;2023-07-13T01:51:35;99213.41;;;24.21;95.76
11605;BME280;5858;43.076;25.626;2023-07-13T01:54:02;99156.84;;;23.91;95.08
11605;BME280;5858;43.076;25.626;2023-07-13T01:56:31;99189.09;;;24.14;94.23
11605;BME280;5858;43.076;25.626;2023-07-13T01:59:00;99155.16;;;24.05;93.56
11605;BME280;5858;43.076;25.626;2023-07-13T02:01:27;99188.53;;;24.23;93.29
11605;BME280;5858;43.076;25.626;2023-07-13T02:03:54;99199.72;;;24.26;93.11
11605;BME280;5858;43.076;25.626;2023-07-13T02:06:21;99230.38;;;24.38;93.65
11605;BME280;5858;43.076;25.626;2023-07-13T02:08:48;99170.75;;;24.00;93.74
11605;BME280;5858;43.076;25.626;2023-07-13T02:11:15;99200.84;;;24.25;93.43
11605;BME280;5858;43.076;25.626;2023-07-13T02:13:44;99216.16;;;24.31;93.50
11605;BME280;5858;43.076;25.626;2023-07-13T02:16:11;99218.34;;;24.24;93.52
11605;BME280;5858;43.076;25.626;2023-07-13T02:18:38;99206.28;;;24.10;94.01
11605;BME280;5858;43.076;25.626;2023-07-13T02:21:05;99176.50;;;23.93;94.14
11605;BME280;5858;43.076;25.626;2023-07-13T02:23:33;99162.59;;;23.69;94.19
11605;BME280;5858;43.076;25.626;2023-07-13T02:26:03;99099.44;;;23.40;93.94
11605;BME280;5858;43.076;25.626;2023-07-13T02:28:30;99189.06;;;23.99;93.61
11605;BME280;5858;43.076;25.626;2023-07-13T02:31:06;99141.28;;;23.71;93.46
11605;BME280;5858;43.076;25.626;2023-07-13T02:33:33;99066.34;;;23.11;93.53
11605;BME280;5858;43.076;25.626;2023-07-13T02:36:00;99167.19;;;23.59;94.37
11605;BME280;5858;43.076;25.626;2023-07-13T02:38:27;99097.78;;;23.19;94.34
11605;BME280;5858;43.076;25.626;2023-07-13T02:40:54;99087.34;;;23.01;95.36
11605;BME280;5858;43.076;25.626;2023-07-13T02:43:21;99124.00;;;23.20;95.40
11605;BME280;5858;43.076;25.626;2023-07-13T02:45:48;99223.25;;;23.97;95.41
11605;BME280;5858;43.076;25.626;2023-07-13T02:48:17;99208.75;;;23.96;94.78
11605;BME280;5858;43.076;25.626;2023-07-13T02:50:44;99173.50;;;23.69;94.62
11605;BME280;5858;43.076;25.626;2023-07-13T02:53:12;99153.53;;;23.59;94.39
11605;BME280;5858;43.076;25.626;2023-07-13T02:55:39;99125.63;;;23.36;94.39
11605;BME280;5858;43.076;25.626;2023-07-13T02:58:06;99232.00;;;24.09;94.45
11605;BME280;5858;43.076;25.626;2023-07-13T03:00:33;99142.34;;;23.55;94.28
11605;BME280;5858;43.076;25.626;2023-07-13T03:03:00;99184.72;;;23.73;94.29
11605;BME280;5858;43.076;25.626;2023-07-13T03:05:29;99180.88;;;23.84;93.63
11605;BME280;5858;43.076;25.626;2023-07-13T03:07:56;99093.69;;;23.21;93.35
11605;BME280;5858;43.076;25.626;2023-07-13T03:10:26;99127.81;;;23.49;92.92
11605;BME280;5858;43.076;25.626;2023-07-13T03:12:53;99235.84;;;24.33;91.99
11605;BME280;5858;43.076;25.626;2023-07-13T03:15:21;99238.81;;;24.52;90.42
11605;BME280;5858;43.076;25.626;2023-07-13T03:17:50;99253.59;;;24.61;89.47
11605;BME280;5858;43.076;25.626;2023-07-13T03:20:18;99100.56;;;23.80;89.58
11605;BME280;5858;43.076;25.626;2023-07-13T03:22:47;99243.41;;;24.82;88.89
11605;BME280;5858;43.076;25.626;2023-07-13T03:25:19;99244.19;;;25.13;87.46
11605;BME280;5858;43.076;25.626;2023-07-13T03:27:46;99223.81;;;25.29;85.29
11605;BME280;5858;43.076;25.626;2023-07-13T03:30:14;99213.59;;;25.45;82.94
11605;BME280;5858;43.076;25.626;2023-07-13T03:32:41;99188.03;;;25.60;81.70
11605;BME280;5858;43.076;25.626;2023-07-13T03:35:11;99145.81;;;25.61;81.05
11605;BME280;5858;43.076;25.626;2023-07-13T03:37:38;99142.34;;;25.84;78.37
11605;BME280;5858;43.076;25.626;2023-07-13T03:40:19;99245.47;;;26.77;77.03
11605;BME280;5858;43.076;25.626;2023-07-13T03:42:46;99086.56;;;25.99;75.48
11605;BME280;5858;43.076;25.626;2023-07-13T03:45:13;99116.91;;;26.37;74.13
11605;BME280;5858;43.076;25.626;2023-07-13T03:47:41;99218.84;;;27.44;72.74
11605;BME280;5858;43.076;25.626;2023-07-13T03:50:09;99205.78;;;27.55;71.02
11605;BME280;5858;43.076;25.626;2023-07-13T03:52:36;99254.28;;;28.21;69.39
11605;BME280;5858;43.076;25.626;2023-07-13T03:55:04;99251.72;;;28.43;66.35
11605;BME280;5858;43.076;25.626;2023-07-13T03:57:32;99201.38;;;28.43;65.68
11605;BME280;5858;43.076;25.626;2023-07-13T04:00:00;99214.13;;;28.66;64.52
11605;BME280;5858;43.076;25.626;2023-07-13T04:02:28;99174.66;;;28.71;63.14
11605;BME280;5858;43.076;25.626;2023-07-13T04:04:56;99189.25;;;28.85;61.78
11605;BME280;5858;43.076;25.626;2023-07-13T04:07:23;99148.75;;;28.72;61.73
11605;BME280;5858;43.076;25.626;2023-07-13T04:09:53;99168.56;;;28.88;61.32
11605;BME280;5858;43.076;25.626;2023-07-13T04:12:20;99163.72;;;28.79;61.40
11605;BME280;5858;43.076;25.626;2023-07-13T04:14:49;99124.91;;;28.53;61.54
11605;BME280;5858;43.076;25.626;2023-07-13T04:17:20;99157.41;;;28.65;61.39
11605;BME280;5858;43.076;25.626;2023-07-13T04:19:48;99256.00;;;29.09;60.15
11605;BME280;5858;43.076;25.626;2023-07-13T04:22:16;99095.66;;;27.98;59.79
11605;BME280;5858;43.076;25.626;2023-07-13T04:24:43;99162.13;;;28.51;59.84
11605;BME280;5858;43.076;25.626;2023-07-13T04:27:11;99110.06;;;28.22;57.81
11605;BME280;5858;43.076;25.626;2023-07-13T04:29:41;99255.94;;;28.82;57.41
11605;BME280;5858;43.076;25.626;2023-07-13T04:32:15;99277.34;;;29.04;56.26
11605;BME280;5858;43.076;25.626;2023-07-13T04:34:44;99211.81;;;29.01;56.51
11605;BME280;5858;43.076;25.626;2023-07-13T04:37:11;99116.44;;;28.50;55.62
11605;BME280;5858;43.076;25.626;2023-07-13T04:39:40;99166.69;;;29.10;55.15
11605;BME280;5858;43.076;25.626;2023-07-13T04:42:07;99257.84;;;29.77;52.13
11605;BME280;5858;43.076;25.626;2023-07-13T04:44:35;99168.44;;;29.56;52.95
11605;BME280;5858;43.076;25.626;2023-07-13T04:47:02;99225.75;;;30.18;51.87
11605;BME280;5858;43.076;25.626;2023-07-13T04:49:36;99145.31;;;30.11;50.85
11605;BME280;5858;43.076;25.626;2023-07-13T04:52:12;99236.09;;;30.96;50.17
11605;BME280;5858;43.076;25.626;2023-07-13T04:54:41;99128.34;;;30.26;48.51
11605;BME280;5858;43.076;25.626;2023-07-13T04:57:13;99144.31;;;30.29;48.22
11605;BME280;5858;43.076;25.626;2023-07-13T04:59:49;99281.81;;;31.02;49.30
11605;BME280;5858;43.076;25.626;2023-07-13T05:02:20;99121.66;;;30.18;49.45
11605;BME280;5858;43.076;25.626;2023-07-13T05:05:04;99200.59;;;30.81;47.08
11605;BME280;5858;43.076;25.626;2023-07-13T05:07:41;99248.34;;;31.13;47.23
11605;BME280;5858;43.076;25.626;2023-07-13T05:10:11;99171.72;;;30.96;47.40
11605;BME280;5858;43.076;25.626;2023-07-13T05:12:40;99273.25;;;31.21;47.76
11605;BME280;5858;43.076;25.626;2023-07-13T05:15:16;99146.28;;;30.37;49.14
11605;BME280;5858;43.076;25.626;2023-07-13T05:17:46;99280.34;;;31.53;47.74
11605;BME280;5858;43.076;25.626;2023-07-13T05:20:15;99246.09;;;31.80;46.48
11605;BME280;5858;43.076;25.626;2023-07-13T05:22:42;99261.53;;;31.90;45.17
11605;BME280;5858;43.076;25.626;2023-07-13T05:25:10;99161.88;;;31.55;46.70
11605;BME280;5858;43.076;25.626;2023-07-13T05:30:37;99129.94;;;32.10;43.38
11605;BME280;5858;43.076;25.626;2023-07-13T05:33:25;99155.03;;;32.60;42.40
11605;BME280;5858;43.076;25.626;2023-07-13T05:36:15;99204.44;;;33.34;42.46
11605;BME280;5858;43.076;25.626;2023-07-13T05:38:45;99161.97;;;33.13;40.75
11605;BME280;5858;43.076;25.626;2023-07-13T05:41:14;99229.03;;;33.86;40.35
11605;BME280;5858;43.076;25.626;2023-07-13T05:43:51;99209.59;;;33.86;40.26
11605;BME280;5858;43.076;25.626;2023-07-13T05:46:26;99233.56;;;33.91;40.22
11605;BME280;5858;43.076;25.626;2023-07-13T05:49:01;99294.31;;;34.34;41.35
11605;BME280;5858;43.076;25.626;2023-07-13T05:51:35;99216.59;;;34.04;40.81
11605;BME280;5858;43.076;25.626;2023-07-13T05:54:02;99266.75;;;34.74;39.75
11605;BME280;5858;43.076;25.626;2023-07-13T05:56:29;99289.44;;;35.33;38.71
11605;BME280;5858;43.076;25.626;2023-07-13T05:59:04;99258.09;;;35.61;40.36
11605;BME280;5858;43.076;25.626;2023-07-13T06:01:50;99136.66;;;34.67;37.01
11605;BME280;5858;43.076;25.626;2023-07-13T06:04:27;99291.13;;;35.75;37.69
11605;BME280;5858;43.076;25.626;2023-07-13T06:07:26;99141.34;;;35.40;38.30
11605;BME280;5858;43.076;25.626;2023-07-13T06:09:58;99167.66;;;35.95;36.28
11605;BME280;5858;43.076;25.626;2023-07-13T06:12:28;99190.41;;;36.13;34.22
11605;BME280;5858;43.076;25.626;2023-07-13T06:15:04;99295.81;;;37.10;35.04
11605;BME280;5858;43.076;25.626;2023-07-13T06:17:38;99251.34;;;36.86;34.69
11605;BME280;5858;43.076;25.626;2023-07-13T06:20:11;99151.72;;;36.39;33.28
11605;BME280;5858;43.076;25.626;2023-07-13T06:22:51;99170.59;;;36.30;35.03
11605;BME280;5858;43.076;25.626;2023-07-13T06:29:32;99143.88;;;36.76;33.81
11605;BME280;5858;43.076;25.626;2023-07-13T06:35:24;99210.41;;;37.76;32.77
11605;BME280;5858;43.076;25.626;2023-07-13T06:49:40;99197.31;;;37.99;31.54
11605;BME280;5858;43.076;25.626;2023-07-13T06:52:34;99157.94;;;37.31;31.98
11605;BME280;5858;43.076;25.626;2023-07-13T06:55:11;99200.31;;;37.52;33.01
11605;BME280;5858;43.076;25.626;2023-07-13T06:57:51;99215.47;;;37.70;33.34
11605;BME280;5858;43.076;25.626;2023-07-13T07:00:23;99195.97;;;37.55;33.96
11605;BME280;5858;43.076;25.626;2023-07-13T07:03:27;99294.19;;;37.92;34.03
11605;BME280;5858;43.076;25.626;2023-07-13T07:06:16;99129.69;;;36.50;34.26
11605;BME280;5858;43.076;25.626;2023-07-13T07:08:46;99285.00;;;37.09;34.85
11605;BME280;5858;43.076;25.626;2023-07-13T07:11:22;99137.94;;;35.87;37.13
11605;BME280;5858;43.076;25.626;2023-07-13T07:13:55;99136.53;;;35.93;36.23
11605;BME280;5858;43.076;25.626;2023-07-13T07:16:25;99274.69;;;36.66;36.15
11605;BME280;5858;43.076;25.626;2023-07-13T07:18:54;99268.94;;;36.58;37.41
11605;BME280;5858;43.076;25.626;2023-07-13T07:21:23;99214.38;;;36.02;37.28
11605;BME280;5858;43.076;25.626;2023-07-13T07:36:07;99138.03;;;35.62;36.67
11605;BME280;5858;43.076;25.626;2023-07-13T07:38:35;99270.31;;;36.09;38.05
11605;BME280;5858;43.076;25.626;2023-07-13T07:41:05;99211.00;;;35.68;39.24
11605;BME280;5858;43.076;25.626;2023-07-13T07:43:35;99243.50;;;36.04;39.78
11605;BME280;5858;43.076;25.626;2023-07-13T07:46:03;99226.84;;;35.80;38.41
11605;BME280;5858;43.076;25.626;2023-07-13T07:48:30;99265.34;;;36.30;37.69
11605;BME280;5858;43.076;25.626;2023-07-13T07:50:57;99264.41;;;36.26;38.23
11605;BME280;5858;43.076;25.626;2023-07-13T07:53:24;99267.19;;;36.26;37.71
11605;BME280;5858;43.076;25.626;2023-07-13T07:55:53;99236.59;;;36.14;36.52
11605;BME280;5858;43.076;25.626;2023-07-13T07:58:22;99230.78;;;36.19;37.42
11605;BME280;5858;43.076;25.626;2023-07-13T08:00:50;99180.28;;;35.92;37.41
11605;BME280;5858;43.076;25.626;2023-07-13T08:03:17;99267.75;;;36.60;36.95
11605;BME280;5858;43.076;25.626;2023-07-13T08:05:44;99215.28;;;36.34;36.65
11605;BME280;5858;43.076;25.626;2023-07-13T08:08:14;99165.59;;;36.08;36.62
11605;BME280;5858;43.076;25.626;2023-07-13T08:10:44;99111.00;;;35.91;35.92
11605;BME280;5858;43.076;25.626;2023-07-13T08:13:13;99208.03;;;36.61;35.94
11605;BME280;5858;43.076;25.626;2023-07-13T08:15:40;99223.34;;;36.82;36.50
11605;BME280;5858;43.076;25.626;2023-07-13T08:18:09;99163.78;;;36.43;36.67
11605;BME280;5858;43.076;25.626;2023-07-13T08:20:39;99187.28;;;35.86;33.04
11605;BME280;5858;43.076;25.626;2023-07-13T08:23:07;99270.88;;;36.42;35.53
11605;BME280;5858;43.076;25.626;2023-07-13T08:25:36;99206.88;;;36.18;35.34
11605;BME280;5858;43.076;25.626;2023-07-13T08:28:03;99258.06;;;36.69;34.93
11605;BME280;5858;43.076;25.626;2023-07-13T08:30:32;99257.78;;;36.74;34.40
11605;BME280;5858;43.076;25.626;2023-07-13T08:33:00;99167.50;;;36.19;34.40
11605;BME280;5858;43.076;25.626;2023-07-13T08:35:28;99199.94;;;36.55;35.59
11605;BME280;5858;43.076;25.626;2023-07-13T08:37:58;99220.63;;;36.70;35.39
11605;BME280;5858;43.076;25.626;2023-07-13T08:40:27;99260.94;;;37.20;35.06
11605;BME280;5858;43.076;25.626;2023-07-13T08:43:02;99113.72;;;36.03;33.58
11605;BME280;5858;43.076;25.626;2023-07-13T08:45:40;99106.25;;;35.91;33.90
11605;BME280;5858;43.076;25.626;2023-07-13T08:48:13;99233.41;;;36.71;32.33
11605;BME280;5858;43.076;25.626;2023-07-13T08:50:51;99170.25;;;36.47;33.26
11605;BME280;5858;43.076;25.626;2023-07-13T08:53:19;99207.50;;;36.71;30.09
11605;BME280;5858;43.076;25.626;2023-07-13T08:55:51;99208.47;;;36.63;30.27
11605;BME280;5858;43.076;25.626;2023-07-13T08:58:25;99248.97;;;36.72;30.82
11605;BME280;5858;43.076;25.626;2023-07-13T09:01:02;99109.50;;;36.09;31.59
11605;BME280;5858;43.076;25.626;2023-07-13T09:03:40;99180.06;;;36.73;31.96
11605;BME280;5858;43.076;25.626;2023-07-13T09:06:11;99148.13;;;36.54;31.22
11605;BME280;5858;43.076;25.626;2023-07-13T09:08:48;99247.19;;;37.27;32.13
11605;BME280;5858;43.076;25.626;2023-07-13T09:11:32;99087.88;;;36.34;31.80
11605;BME280;5858;43.076;25.626;2023-07-13T09:14:11;99226.03;;;37.26;32.33
11605;BME280;5858;43.076;25.626;2023-07-13T09:16:47;99233.31;;;37.66;32.58
11605;BME280;5858;43.076;25.626;2023-07-13T09:19:21;99230.72;;;37.92;33.04
11605;BME280;5858;43.076;25.626;2023-07-13T09:21:51;99133.66;;;37.50;32.50
11605;BME280;5858;43.076;25.626;2023-07-13T09:24:29;99102.00;;;37.43;30.81
11605;BME280;5858;43.076;25.626;2023-07-13T09:27:03;99190.25;;;38.05;31.57
11605;BME280;5858;43.076;25.626;2023-07-13T09:29:37;99081.84;;;37.34;28.62
11605;BME280;5858;43.076;25.626;2023-07-13T09:32:12;99179.31;;;37.77;31.46
11605;BME280;5858;43.076;25.626;2023-07-13T09:34:41;99161.88;;;37.84;31.39
11605;BME280;5858;43.076;25.626;2023-07-13T09:37:08;99220.69;;;38.30;28.88
11605;BME280;5858;43.076;25.626;2023-07-13T09:39:37;99078.03;;;37.42;29.17
11605;BME280;5858;43.076;25.626;2023-07-13T09:42:11;99226.38;;;38.56;29.22
11605;BME280;5858;43.076;25.626;2023-07-13T09:44:51;99230.47;;;38.82;29.21
11605;BME280;5858;43.076;25.626;2023-07-13T09:47:22;99117.50;;;38.21;27.80
11605;BME280;5858;43.076;25.626;2023-07-13T09:49:54;99225.91;;;38.96;29.63
11605;BME280;5858;43.076;25.626;2023-07-13T09:52:24;99220.19;;;38.89;30.05
11605;BME280;5858;43.076;25.626;2023-07-13T09:55:01;99094.84;;;38.07;30.01
11605;BME280;5858;43.076;25.626;2023-07-13T09:57:28;99086.97;;;38.12;29.37
11605;BME280;5858;43.076;25.626;2023-07-13T09:59:56;99058.88;;;37.83;29.92
11605;BME280;5858;43.076;25.626;2023-07-13T10:02:29;99221.06;;;38.93;30.23
11605;BME280;5858;43.076;25.626;2023-07-13T10:04:59;99126.53;;;38.34;29.01
11605;BME280;5858;43.076;25.626;2023-07-13T10:07:27;99163.06;;;38.67;29.11
11605;BME280;5858;43.076;25.626;2023-07-13T10:09:55;99211.03;;;38.92;29.76
11605;BME280;5858;43.076;25.626;2023-07-13T10:12:22;99188.72;;;38.73;29.67
11605;BME280;5858;43.076;25.626;2023-07-13T10:14:52;99192.06;;;38.59;29.34
11605;BME280;5858;43.076;25.626;2023-07-13T10:17:31;99094.56;;;37.89;29.42
11605;BME280;5858;43.076;25.626;2023-07-13T10:20:02;99137.22;;;38.09;28.63
11605;BME280;5858;43.076;25.626;2023-07-13T10:22:37;99173.81;;;38.42;29.43
11605;BME280;5858;43.076;25.626;2023-07-13T10:25:14;99202.28;;;38.71;30.15
11605;BME280;5858;43.076;25.626;2023-07-13T10:27:45;99074.69;;;37.94;29.69
11605;BME280;5858;43.076;25.626;2023-07-13T10:30:17;99211.16;;;38.77;28.31
11605;BME280;5858;43.076;25.626;2023-07-13T10:32:48;99163.38;;;38.39;28.54
11605;BME280;5858;43.076;25.626;2023-07-13T10:35:18;99103.56;;;38.02;28.40
11605;BME280;5858;43.076;25.626;2023-07-13T10:37:53;99058.22;;;37.89;27.87
11605;BME280;5858;43.076;25.626;2023-07-13T10:40:27;99147.13;;;38.26;29.02
11605;BME280;5858;43.076;25.626;2023-07-13T10:42:59;99182.22;;;38.65;28.45
11605;BME280;5858;43.076;25.626;2023-07-13T10:45:30;99139.13;;;38.47;30.40
11605;BME280;5858;43.076;25.626;2023-07-13T10:48:11;99068.84;;;38.03;30.21
11605;BME280;5858;43.076;25.626;2023-07-13T10:50:44;99137.19;;;38.51;29.12
11605;BME280;5858;43.076;25.626;2023-07-13T10:53:19;99067.72;;;37.85;29.81
11605;BME280;5858;43.076;25.626;2023-07-13T10:56:01;99192.84;;;38.79;29.96
11605;BME280;5858;43.076;25.626;2023-07-13T10:58:35;99173.06;;;38.68;26.30
11605;BME280;5858;43.076;25.626;2023-07-13T11:01:07;99051.84;;;37.89;27.66
11605;BME280;5858;43.076;25.626;2023-07-13T11:03:47;99161.81;;;38.65;28.37
11605;BME280;5858;43.076;25.626;2023-07-13T11:06:33;99088.31;;;38.19;26.99
11605;BME280;5858;43.076;25.626;2023-07-13T11:09:19;99137.63;;;38.53;30.68
11605;BME280;5858;43.076;25.626;2023-07-13T11:11:51;99174.41;;;38.78;28.87
11605;BME280;5858;43.076;25.626;2023-07-13T11:14:30;99216.78;;;39.26;27.82
11605;BME280;5858;43.076;25.626;2023-07-13T11:17:24;99202.72;;;39.22;30.17
11605;BME280;5858;43.076;25.626;2023-07-13T11:20:10;99145.06;;;38.91;28.04
11605;BME280;5858;43.076;25.626;2023-07-13T11:22:47;99152.00;;;39.01;27.94
11605;BME280;5858;43.076;25.626;2023-07-13T11:25:25;99125.31;;;38.81;28.26
11605;BME280;5858;43.076;25.626;2023-07-13T11:28:06;99158.22;;;39.14;26.36
11605;BME280;5858;43.076;25.626;2023-07-13T11:30:39;99172.06;;;39.29;25.91
11605;BME280;5858;43.076;25.626;2023-07-13T11:33:15;99095.88;;;38.90;25.95
11605;BME280;5858;43.076;25.626;2023-07-13T11:35:51;99082.22;;;38.85;26.07
11605;BME280;5858;43.076;25.626;2023-07-13T11:38:22;99140.75;;;39.24;26.13
11605;BME280;5858;43.076;25.626;2023-07-13T11:40:54;99134.41;;;39.27;26.98
11605;BME280;5858;43.076;25.626;2023-07-13T11:43:23;99126.28;;;39.18;25.83
11605;BME280;5858;43.076;25.626;2023-07-13T11:45:51;99099.56;;;39.24;26.62
11605;BME280;5858;43.076;25.626;2023-07-13T11:48:23;99100.28;;;39.18;26.90
11605;BME280;5858;43.076;25.626;2023-07-13T11:50:56;99083.53;;;38.95;26.44
11605;BME280;5858;43.076;25.626;2023-07-13T11:53:51;99155.44;;;39.44;26.30
11605;BME280;5858;43.076;25.626;2023-07-13T11:56:22;99110.31;;;39.22;26.61
11605;BME280;5858;43.076;25.626;2023-07-13T11:58:55;99099.28;;;39.33;25.62
11605;BME280;5858;43.076;25.626;2023-07-13T12:01:24;99137.47;;;39.78;27.31
11605;BME280;5858;43.076;25.626;2023-07-13T12:03:54;99078.63;;;39.45;26.89
11605;BME280;5858;43.076;25.626;2023-07-13T12:06:27;99129.31;;;39.66;26.38
11605;BME280;5858;43.076;25.626;2023-07-13T12:09:08;99088.34;;;39.24;26.95
11605;BME280;5858;43.076;25.626;2023-07-13T12:11:43;99131.56;;;39.53;26.48
11605;BME280;5858;43.076;25.626;2023-07-13T12:14:14;99068.00;;;38.97;25.71
11605;BME280;5858;43.076;25.626;2023-07-13T12:16:43;99109.03;;;39.46;26.79
11605;BME280;5858;43.076;25.626;2023-07-13T12:19:37;99115.75;;;39.72;27.11
11605;BME280;5858;43.076;25.626;2023-07-13T12:22:15;99058.75;;;39.23;25.88
11605;BME280;5858;43.076;25.626;2023-07-13T12:26:10;98988.31;;;38.88;26.69
11605;BME280;5858;43.076;25.626;2023-07-13T12:28:20;98976.31;;;38.87;26.89
11605;BME280;5858;43.076;25.626;2023-07-13T12:30:58;98979.06;;;38.84;26.31
11605;BME280;5858;43.076;25.626;2023-07-13T12:33:45;99005.81;;;39.11;27.50
11605;BME280;5858;43.076;25.626;2023-07-13T12:36:12;99101.00;;;39.75;28.37
11605;BME280;5858;43.076;25.626;2023-07-13T12:38:45;99067.63;;;39.62;27.59
11605;BME280;5858;43.076;25.626;2023-07-13T12:41:15;98967.69;;;39.03;26.39
11605;BME280;5858;43.076;25.626;2023-07-13T12:43:45;99056.88;;;39.68;27.61
11605;BME280;5858;43.076;25.626;2023-07-13T12:46:18;98996.88;;;39.32;28.32
11605;BME280;5858;43.076;25.626;2023-07-13T12:48:49;99030.00;;;39.60;28.03
11605;BME280;5858;43.076;25.626;2023-07-13T12:51:16;98994.31;;;39.20;26.48
11605;BME280;5858;43.076;25.626;2023-07-13T12:53:48;99027.75;;;39.39;26.82
11605;BME280;5858;43.076;25.626;2023-07-13T12:56:22;98941.31;;;39.04;28.30
11605;BME280;5858;43.076;25.626;2023-07-13T12:58:50;99073.91;;;39.86;26.64
11605;BME280;5858;43.076;25.626;2023-07-13T13:01:21;99067.44;;;39.78;24.49
11605;BME280;5858;43.076;25.626;2023-07-13T13:03:51;99061.81;;;39.78;25.80
11605;BME280;5858;43.076;25.626;2023-07-13T13:06:23;98942.78;;;38.91;26.11
11605;BME280;5858;43.076;25.626;2023-07-13T13:08:54;99004.22;;;39.47;27.17
11605;BME280;5858;43.076;25.626;2023-07-13T13:11:22;99059.28;;;39.66;26.66
11605;BME280;5858;43.076;25.626;2023-07-13T13:13:50;99045.16;;;39.55;27.07
11605;BME280;5858;43.076;25.626;2023-07-13T13:16:20;98985.56;;;39.25;26.96
11605;BME280;5858;43.076;25.626;2023-07-13T13:18:49;99029.81;;;39.46;25.75
11605;BME280;5858;43.076;25.626;2023-07-13T13:21:17;98985.88;;;39.16;26.60
11605;BME280;5858;43.076;25.626;2023-07-13T13:23:44;98970.38;;;39.26;27.22
11605;BME280;5858;43.076;25.626;2023-07-13T13:26:22;99022.31;;;39.53;25.82
11605;BME280;5858;43.076;25.626;2023-07-13T13:28:50;99055.44;;;39.48;27.02
11605;BME280;5858;43.076;25.626;2023-07-13T13:31:47;98924.13;;;38.72;27.43
11605;BME280;5858;43.076;25.626;2023-07-13T13:34:17;99036.06;;;39.32;25.55
11605;BME280;5858;43.076;25.626;2023-07-13T13:37:11;99060.81;;;39.60;27.18
11605;BME280;5858;43.076;25.626;2023-07-13T13:39:49;99045.78;;;39.42;26.55
11605;BME280;5858;43.076;25.626;2023-07-13T13:42:18;99058.91;;;39.71;25.67
11605;BME280;5858;43.076;25.626;2023-07-13T13:45:07;99004.75;;;39.23;27.55
11605;BME280;5858;43.076;25.626;2023-07-13T13:47:38;99042.38;;;39.59;27.24
11605;BME280;5858;43.076;25.626;2023-07-13T13:50:12;98927.47;;;38.81;28.27
11605;BME280;5858;43.076;25.626;2023-07-13T13:52:43;98918.69;;;38.83;26.13
11605;BME280;5858;43.076;25.626;2023-07-13T13:55:14;98971.25;;;39.30;29.76
11605;BME280;5858;43.076;25.626;2023-07-13T13:57:43;99019.97;;;39.59;27.52
11605;BME280;5858;43.076;25.626;2023-07-13T14:00:14;99047.28;;;39.69;25.95